createdAt,value
2019-03-12T00:00:30.428Z,100716.41
2019-03-12T00:01:38.399Z,100714.22
2019-03-12T00:02:45.613Z,100724.23
2019-03-12T00:03:54.764Z,100725.95
2019-03-12T00:05:02.301Z,100725.53
2019-03-12T00:06:10.272Z,100723.82
2019-03-12T00:07:17.392Z,100724.98
2019-03-12T00:08:24.723Z,100734.99
2019-03-12T00:09:33.371Z,100731.05
2019-03-12T00:10:39.677Z,100726.24
2019-03-12T00:11:46.874Z,100744.48
2019-03-12T00:12:55.368Z,100737.48
2019-03-12T00:14:02.844Z,100739.20
2019-03-12T00:15:09.401Z,100743.11
2019-03-12T00:16:17.387Z,100744.30
2019-03-12T00:17:25.789Z,100740.31
2019-03-12T00:18:33.245Z,100747.39
2019-03-12T00:19:40.805Z,100750.81
2019-03-12T00:20:48.225Z,100747.80
2019-03-12T00:21:56.691Z,100746.02
2019-03-12T00:23:03.125Z,100745.19
2019-03-12T00:24:11.154Z,100750.41
2019-03-12T00:25:20.097Z,100751.63
2019-03-12T00:26:27.397Z,100751.22
2019-03-12T00:27:34.623Z,100763.43
2019-03-12T00:28:41.241Z,100762.17
2019-03-12T00:29:48.247Z,100763.43
2019-03-12T00:30:54.932Z,100762.13
2019-03-12T00:32:03.103Z,100769.53
2019-03-12T00:33:09.891Z,100773.89
2019-03-12T00:34:16.181Z,100767.75
2019-03-12T00:35:44.072Z,100768.16
2019-03-12T00:36:51.169Z,100769.53
2019-03-12T00:38:00.241Z,100773.08
2019-03-12T00:39:08.111Z,100772.33
2019-03-12T00:40:16.917Z,100772.78
2019-03-12T00:41:25.431Z,100766.75
2019-03-12T00:42:33.205Z,100772.33
2019-03-12T00:43:40.995Z,100772.67
2019-03-12T00:44:47.643Z,100773.03
2019-03-12T00:45:54.365Z,100780.41
2019-03-12T00:47:01.167Z,100779.48
2019-03-12T00:48:08.786Z,100785.51
2019-03-12T00:49:15.992Z,100785.51
2019-03-12T00:50:22.832Z,100784.69
2019-03-12T00:51:30.386Z,100787.22
2019-03-12T00:52:37.471Z,100797.23
2019-03-12T00:53:46.223Z,100796.83
2019-03-12T00:54:55.444Z,100800.25
2019-03-12T00:56:02.533Z,100802.44
2019-03-12T00:57:10.644Z,100801.55
2019-03-12T00:58:18.712Z,100801.92
2019-03-12T00:59:25.250Z,100807.54
2019-03-12T01:00:32.012Z,100810.88
2019-03-12T01:01:40.010Z,100816.05
2019-03-12T01:02:46.802Z,100818.17
2019-03-12T01:03:54.288Z,100808.53
2019-03-12T01:05:02.020Z,100825.39
2019-03-12T01:06:10.527Z,100814.89
2019-03-12T01:07:17.371Z,100814.48
2019-03-12T01:08:24.621Z,100823.60
2019-03-12T01:09:31.714Z,100825.31
2019-03-12T01:10:38.762Z,100829.58
2019-03-12T01:11:46.015Z,100827.31
2019-03-12T01:12:53.214Z,100829.91
2019-03-12T01:13:59.716Z,100831.30
2019-03-12T01:15:08.676Z,100834.23
2019-03-12T01:16:16.399Z,100835.00
2019-03-12T01:17:23.351Z,100841.92
2019-03-12T01:18:30.330Z,100841.39
2019-03-12T01:19:39.248Z,100853.45
2019-03-12T01:20:47.184Z,100848.16
2019-03-12T01:21:54.925Z,100843.31
2019-03-12T01:23:02.814Z,100855.11
2019-03-12T01:24:11.752Z,100852.84
2019-03-12T01:25:40.104Z,100853.73
2019-03-12T01:26:47.635Z,100858.05
2019-03-12T01:27:54.110Z,100862.44
2019-03-12T01:29:02.224Z,100860.13
2019-03-12T01:30:17.252Z,100857.44
2019-03-12T01:31:24.169Z,100860.53
2019-03-12T01:32:31.424Z,100866.02
2019-03-12T01:33:37.992Z,100869.03
2019-03-12T01:34:46.250Z,100863.41
2019-03-12T01:35:54.046Z,100874.98
2019-03-12T01:37:01.685Z,100866.76
2019-03-12T01:38:08.558Z,100871.07
2019-03-12T01:39:14.976Z,100870.66
2019-03-12T01:40:23.192Z,100870.17
2019-03-12T01:41:30.174Z,100868.83
2019-03-12T01:42:37.861Z,100873.95
2019-03-12T01:43:45.930Z,100876.16
2019-03-12T01:44:52.693Z,100881.36
2019-03-12T01:45:59.517Z,100876.02
2019-03-12T01:47:06.304Z,100879.09
2019-03-12T01:48:13.648Z,100878.63
2019-03-12T01:49:20.026Z,100880.34
2019-03-12T01:50:27.262Z,100881.23
2019-03-12T01:51:34.365Z,100882.53
2019-03-12T01:52:41.187Z,100883.34
2019-03-12T01:53:48.247Z,100884.73
2019-03-12T01:54:55.120Z,100886.89
2019-03-12T01:56:03.658Z,100877.66
2019-03-12T01:57:11.041Z,100888.07
2019-03-12T01:58:17.821Z,100889.38
2019-03-12T01:59:25.481Z,100893.64
2019-03-12T02:00:33.995Z,100892.25
2019-03-12T02:01:41.125Z,100896.16
2019-03-12T02:02:48.818Z,100899.53
2019-03-12T02:03:55.979Z,100901.70
2019-03-12T02:05:03.075Z,100912.11
2019-03-12T02:06:11.677Z,100909.50
2019-03-12T02:07:19.175Z,100907.75
2019-03-12T02:08:25.777Z,100914.80
2019-03-12T02:09:32.635Z,100907.80
2019-03-12T02:10:39.382Z,100913.41
2019-03-12T02:11:46.616Z,100912.55
2019-03-12T02:12:53.963Z,100910.35
2019-03-12T02:14:01.425Z,100908.89
2019-03-12T02:15:15.168Z,100916.29
2019-03-12T02:16:21.759Z,100919.70
2019-03-12T02:17:28.875Z,100914.59
2019-03-12T02:18:35.665Z,100914.05
2019-03-12T02:19:43.115Z,100910.55
2019-03-12T02:20:49.970Z,100915.35
2019-03-12T02:21:57.137Z,100917.59
2019-03-12T02:23:05.770Z,100921.09
2019-03-12T02:24:12.927Z,100918.89
2019-03-12T02:25:20.668Z,100919.25
2019-03-12T02:26:29.513Z,100919.58
2019-03-12T02:27:36.677Z,100922.95
2019-03-12T02:28:43.382Z,100920.75
2019-03-12T02:29:50.331Z,100920.75
2019-03-12T02:30:57.196Z,100923.35
2019-03-12T02:32:04.757Z,100918.55
2019-03-12T02:33:12.296Z,100925.47
2019-03-12T02:34:19.808Z,100919.53
2019-03-12T02:35:27.837Z,100913.84
2019-03-12T02:36:35.125Z,100917.74
2019-03-12T02:37:42.579Z,100919.94
2019-03-12T02:38:49.299Z,100920.34
2019-03-12T02:39:57.310Z,100929.38
2019-03-12T02:41:04.062Z,100929.30
2019-03-12T02:42:12.750Z,100934.09
2019-03-12T02:43:20.083Z,100933.63
2019-03-12T02:44:27.903Z,100927.86
2019-03-12T02:45:35.183Z,100929.16
2019-03-12T02:46:44.658Z,100932.17
2019-03-12T02:47:51.223Z,100925.53
2019-03-12T02:48:58.233Z,100934.23
2019-03-12T02:50:07.061Z,100934.23
2019-03-12T02:51:14.726Z,100933.83
2019-03-12T02:52:21.572Z,100930.82
2019-03-12T02:53:28.561Z,100935.62
2019-03-12T02:54:36.480Z,100933.02
2019-03-12T02:55:44.865Z,100938.95
2019-03-12T02:56:52.726Z,100939.84
2019-03-12T02:58:00.641Z,100948.14
2019-03-12T02:59:07.828Z,100948.55
2019-03-12T03:00:22.916Z,100947.33
2019-03-12T03:01:30.548Z,100947.73
2019-03-12T03:02:37.431Z,100941.23
2019-03-12T03:03:45.163Z,100948.55
2019-03-12T03:04:54.190Z,100949.45
2019-03-12T03:06:03.558Z,100941.47
2019-03-12T03:07:19.635Z,100951.87
2019-03-12T03:08:31.380Z,100946.63
2019-03-12T03:09:38.858Z,100950.45
2019-03-12T03:10:45.797Z,100950.04
2019-03-12T03:11:52.700Z,100951.34
2019-03-12T03:12:59.464Z,100958.66
2019-03-12T03:14:09.826Z,100956.95
2019-03-12T03:15:20.578Z,100958.20
2019-03-12T03:16:27.366Z,100956.01
2019-03-12T03:17:35.264Z,100962.02
2019-03-12T03:18:43.197Z,100960.64
2019-03-12T03:19:49.846Z,100961.53
2019-03-12T03:20:56.627Z,100965.44
2019-03-12T03:22:03.725Z,100963.33
2019-03-12T03:23:11.282Z,100967.23
2019-03-12T03:24:18.293Z,100965.03
2019-03-12T03:25:26.420Z,100964.54
2019-03-12T03:26:34.370Z,100966.73
2019-03-12T03:27:42.158Z,100971.53
2019-03-12T03:28:49.277Z,100978.45
2019-03-12T03:29:56.692Z,100969.20
2019-03-12T03:31:03.707Z,100969.20
2019-03-12T03:32:10.597Z,100976.20
2019-03-12T03:33:18.886Z,100968.39
2019-03-12T03:34:28.117Z,100972.62
2019-03-12T03:35:35.567Z,100982.08
2019-03-12T03:36:42.435Z,100988.09
2019-03-12T03:37:48.707Z,100986.80
2019-03-12T03:38:55.726Z,100995.41
2019-03-12T03:40:02.769Z,100989.66
2019-03-12T03:41:09.848Z,100991.77
2019-03-12T03:42:16.967Z,100993.48
2019-03-12T03:43:24.402Z,100999.17
2019-03-12T03:44:31.146Z,101006.48
2019-03-12T03:45:59.047Z,100999.09
2019-03-12T03:47:05.560Z,101006.89
2019-03-12T03:48:13.139Z,101010.39
2019-03-12T03:49:20.133Z,101010.31
2019-03-12T03:50:26.612Z,101011.96
2019-03-12T03:51:34.929Z,101009.68
2019-03-12T03:52:41.896Z,101018.73
2019-03-12T03:53:48.790Z,101011.73
2019-03-12T03:54:55.537Z,101016.04
2019-03-12T03:56:02.586Z,101012.95
2019-03-12T03:57:10.610Z,101013.30
2019-03-12T03:58:17.405Z,101018.50
2019-03-12T03:59:24.234Z,101021.56
2019-03-12T04:00:31.068Z,101020.27
2019-03-12T04:01:39.139Z,101021.56
2019-03-12T04:02:46.018Z,101016.36
2019-03-12T04:03:53.030Z,101022.86
2019-03-12T04:05:02.476Z,101027.66
2019-03-12T04:06:09.502Z,101030.61
2019-03-12T04:07:17.448Z,101025.00
2019-03-12T04:08:24.732Z,101035.33
2019-03-12T04:09:33.040Z,101037.92
2019-03-12T04:10:40.216Z,101039.55
2019-03-12T04:11:47.584Z,101040.93
2019-03-12T04:12:54.555Z,101038.42
2019-03-12T04:14:21.899Z,101040.53
2019-03-12T04:15:29.282Z,101031.51
2019-03-12T04:16:36.191Z,101028.02
2019-03-12T04:17:43.129Z,101029.31
2019-03-12T04:18:50.008Z,101031.08
2019-03-12T04:19:57.301Z,101038.73
2019-03-12T04:21:04.750Z,101041.02
2019-03-12T04:22:12.481Z,101044.03
2019-03-12T04:23:20.342Z,101040.13
2019-03-12T04:24:26.911Z,101049.63
2019-03-12T04:25:34.369Z,101047.34
2019-03-12T04:26:42.115Z,101055.15
2019-03-12T04:27:49.964Z,101055.59
2019-03-12T04:28:57.423Z,101056.89
2019-03-12T04:30:05.445Z,101052.55
2019-03-12T04:31:13.982Z,101065.55
2019-03-12T04:32:21.462Z,101068.59
2019-03-12T04:34:01.312Z,101074.66
2019-03-12T04:35:12.923Z,101076.80
2019-03-12T04:36:20.801Z,101073.70
2019-03-12T04:37:27.670Z,101071.11
2019-03-12T04:38:36.194Z,101079.31
2019-03-12T04:40:03.968Z,101083.22
2019-03-12T04:41:10.953Z,101089.98
2019-03-12T04:42:19.220Z,101089.58
2019-03-12T04:43:25.738Z,101092.09
2019-03-12T04:44:32.698Z,101097.29
2019-03-12T04:45:39.814Z,101092.00
2019-03-12T04:46:47.946Z,101097.45
2019-03-12T04:47:54.893Z,101096.65
2019-03-12T04:49:01.972Z,101092.34
2019-03-12T04:50:10.866Z,101095.34
2019-03-12T04:51:17.663Z,101099.74
2019-03-12T04:52:24.543Z,101100.15
2019-03-12T04:53:31.657Z,101096.96
2019-03-12T04:54:40.995Z,101093.91
2019-03-12T04:55:48.654Z,101096.09
2019-03-12T04:56:55.391Z,101102.16
2019-03-12T04:58:03.475Z,101098.20
2019-03-12T04:59:31.464Z,101100.72
2019-03-12T05:00:39.137Z,101096.77
2019-03-12T05:01:47.728Z,101098.87
2019-03-12T05:02:54.724Z,101106.67
2019-03-12T05:04:02.820Z,101111.47
2019-03-12T05:05:10.334Z,101104.87
2019-03-12T05:06:19.805Z,101105.69
2019-03-12T05:07:27.378Z,101118.78
2019-03-12T05:08:34.257Z,101121.28
2019-03-12T05:09:41.533Z,101122.19
2019-03-12T05:10:48.470Z,101117.88
2019-03-12T05:11:57.239Z,101118.28
2019-03-12T05:13:04.903Z,101121.47
2019-03-12T05:14:30.501Z,101120.97
2019-03-12T05:15:37.723Z,101130.48
2019-03-12T05:16:45.997Z,101126.89
2019-03-12T05:17:53.960Z,101131.78
2019-03-12T05:19:01.115Z,101128.19
2019-03-12T05:20:12.178Z,101135.67
2019-03-12T05:21:19.243Z,101128.59
2019-03-12T05:22:26.049Z,101135.28
2019-03-12T05:23:33.269Z,101136.23
2019-03-12T05:24:40.067Z,101136.81
2019-03-12T05:25:47.944Z,101138.52
2019-03-12T05:26:54.673Z,101141.67
2019-03-12T05:28:01.561Z,101141.67
2019-03-12T05:29:09.859Z,101149.88
2019-03-12T05:30:21.012Z,101152.88
2019-03-12T05:31:28.505Z,101155.92
2019-03-12T05:32:35.711Z,101161.52
2019-03-12T05:33:42.750Z,101162.42
2019-03-12T05:34:49.872Z,101164.27
2019-03-12T05:35:57.023Z,101163.87
2019-03-12T05:37:03.423Z,101166.97
2019-03-12T05:38:11.416Z,101163.47
2019-03-12T05:39:18.048Z,101164.42
2019-03-12T05:40:25.498Z,101171.02
2019-03-12T05:41:32.588Z,101174.11
2019-03-12T05:42:41.408Z,101177.61
2019-03-12T05:43:48.559Z,101179.31
2019-03-12T05:44:56.824Z,101174.35
2019-03-12T05:46:04.387Z,101179.36
2019-03-12T05:47:12.301Z,101183.59
2019-03-12T05:48:20.457Z,101181.98
2019-03-12T05:49:27.137Z,101175.47
2019-03-12T05:50:33.847Z,101175.62
2019-03-12T05:51:42.238Z,101180.25
2019-03-12T05:52:50.368Z,101177.05
2019-03-12T05:53:58.359Z,101181.59
2019-03-12T05:55:06.498Z,101179.16
2019-03-12T05:56:13.681Z,101182.81
2019-03-12T05:57:21.521Z,101182.05
2019-03-12T05:58:28.683Z,101186.86
2019-03-12T05:59:36.072Z,101182.64
2019-03-12T06:00:43.495Z,101188.89
2019-03-12T06:01:50.535Z,101185.47
2019-03-12T06:02:57.665Z,101183.67
2019-03-12T06:04:04.638Z,101181.08
2019-03-12T06:05:11.937Z,101186.69
2019-03-12T06:06:19.880Z,101183.02
2019-03-12T06:07:27.593Z,101185.22
2019-03-12T06:08:35.475Z,101184.95
2019-03-12T06:09:42.112Z,101185.50
2019-03-12T06:10:50.831Z,101189.45
2019-03-12T06:11:58.017Z,101181.84
2019-03-12T06:13:07.738Z,101188.75
2019-03-12T06:14:15.208Z,101184.62
2019-03-12T06:15:21.931Z,101188.48
2019-03-12T06:16:28.987Z,101189.34
2019-03-12T06:17:35.666Z,101177.51
2019-03-12T06:18:42.790Z,101179.87
2019-03-12T06:19:49.900Z,101170.44
2019-03-12T06:20:56.974Z,101177.61
2019-03-12T06:22:04.073Z,101182.47
2019-03-12T06:23:11.400Z,101182.53
2019-03-12T06:24:18.554Z,101185.29
2019-03-12T06:25:26.423Z,101181.30
2019-03-12T06:26:34.527Z,101184.39
2019-03-12T06:27:41.802Z,101179.80
2019-03-12T06:28:50.946Z,101181.63
2019-03-12T06:30:01.266Z,101183.07
2019-03-12T06:31:25.426Z,101183.98
2019-03-12T06:32:42.173Z,101186.80
2019-03-12T06:34:04.186Z,101189.78
2019-03-12T06:35:12.243Z,101194.51
2019-03-12T06:36:38.618Z,101189.75
2019-03-12T06:37:46.916Z,101190.17
2019-03-12T06:38:55.647Z,101191.34
2019-03-12T06:40:06.429Z,101185.84
2019-03-12T06:41:22.294Z,101195.55
2019-03-12T06:42:39.102Z,101186.42
2019-03-12T06:44:03.069Z,101189.86
2019-03-12T06:45:30.510Z,101185.83
2019-03-12T06:46:46.659Z,101187.45
2019-03-12T06:47:59.849Z,101184.58
2019-03-12T06:49:08.458Z,101183.20
2019-03-12T06:50:35.828Z,101186.91
2019-03-12T06:51:52.810Z,101188.96
2019-03-12T06:53:17.537Z,101190.75
2019-03-12T06:54:29.866Z,101192.06
2019-03-12T06:55:53.368Z,101197.06
2019-03-12T06:57:07.506Z,101202.66
2019-03-12T06:58:25.806Z,101191.78
2019-03-12T06:59:42.929Z,101193.48
2019-03-12T07:00:52.893Z,101197.30
2019-03-12T07:02:20.470Z,101197.41
2019-03-12T07:03:47.447Z,101202.41
2019-03-12T07:05:01.891Z,101203.77
2019-03-12T07:06:27.856Z,101206.28
2019-03-12T07:07:48.186Z,101208.36
2019-03-12T07:09:12.304Z,101207.88
2019-03-12T07:10:26.619Z,101209.33
2019-03-12T07:11:41.300Z,101213.47
2019-03-12T07:12:47.761Z,101218.31
2019-03-12T07:13:56.526Z,101211.76
2019-03-12T07:15:10.806Z,101213.41
2019-03-12T07:16:19.406Z,101224.72
2019-03-12T07:17:33.987Z,101226.06
2019-03-12T07:18:53.408Z,101239.81
2019-03-12T07:22:41.740Z,101238.80
2019-03-12T07:23:47.980Z,101233.86
2019-03-12T07:25:00.624Z,101240.68
2019-03-12T07:26:16.474Z,101229.38
2019-03-12T07:27:22.719Z,101233.30
2019-03-12T07:28:50.658Z,101230.69
2019-03-12T07:30:12.840Z,101237.78
2019-03-12T07:31:21.257Z,101243.61
2019-03-12T07:32:46.658Z,101239.70
2019-03-12T07:33:57.520Z,101238.59
2019-03-12T07:35:06.279Z,101247.76
2019-03-12T07:36:19.640Z,101242.90
2019-03-12T07:37:39.187Z,101250.13
2019-03-12T07:38:49.434Z,101247.16
2019-03-12T07:40:11.350Z,101248.77
2019-03-12T07:41:30.232Z,101241.13
2019-03-12T07:42:43.930Z,101233.48
2019-03-12T07:43:56.877Z,101239.68
2019-03-12T07:45:25.529Z,101237.11
2019-03-12T07:46:36.500Z,101231.55
2019-03-12T07:47:51.500Z,101230.31
2019-03-12T07:49:02.839Z,101225.69
2019-03-12T07:50:13.190Z,101225.88
2019-03-12T07:53:07.570Z,101248.92
2019-03-12T07:54:14.810Z,101248.02
2019-03-12T07:55:33.341Z,101252.28
2019-03-12T07:56:57.561Z,101259.71
2019-03-12T07:58:04.657Z,101252.84
2019-03-12T07:59:13.127Z,101251.05
2019-03-12T08:00:36.759Z,101247.84
2019-03-12T08:01:45.364Z,101248.93
2019-03-12T08:02:56.573Z,101251.06
2019-03-12T08:04:12.864Z,101247.77
2019-03-12T08:05:32.794Z,101244.45
2019-03-12T08:06:58.637Z,101253.45
2019-03-12T08:08:07.004Z,101244.30
2019-03-12T08:09:18.055Z,101245.38
2019-03-12T08:10:37.097Z,101247.84
2019-03-12T08:12:00.614Z,101253.12
2019-03-12T08:13:15.028Z,101250.39
2019-03-12T08:14:26.606Z,101242.47
2019-03-12T08:15:50.353Z,101247.96
2019-03-12T08:16:58.782Z,101249.56
2019-03-12T08:18:21.629Z,101241.02
2019-03-12T08:19:42.653Z,101244.94
2019-03-12T08:21:07.912Z,101257.72
2019-03-12T08:22:14.027Z,101252.67
2019-03-12T08:23:28.793Z,101253.60
2019-03-12T08:24:44.862Z,101261.03
2019-03-12T08:25:56.082Z,101255.36
2019-03-12T08:27:08.270Z,101254.91
2019-03-12T08:28:20.235Z,101259.47
2019-03-12T08:29:35.030Z,101255.09
2019-03-12T08:30:47.499Z,101255.88
2019-03-12T08:32:09.209Z,101253.97
2019-03-12T08:33:30.837Z,101253.67
2019-03-12T08:34:57.087Z,101259.27
2019-03-12T08:36:23.344Z,101259.34
2019-03-12T08:37:41.017Z,101270.82
2019-03-12T08:38:57.898Z,101267.59
2019-03-12T08:40:09.670Z,101274.39
2019-03-12T08:41:37.010Z,101280.56
2019-03-12T08:42:54.716Z,101263.80
2019-03-12T08:43:56.284Z,101270.11
2019-03-12T08:45:04.060Z,101265.16
2019-03-12T08:46:31.261Z,101265.85
2019-03-12T08:47:45.730Z,101268.54
2019-03-12T08:48:54.562Z,101268.64
2019-03-12T08:50:17.922Z,101255.34
2019-03-12T08:51:44.189Z,101263.54
2019-03-12T08:52:56.420Z,101257.89
2019-03-12T08:54:17.529Z,101260.51
2019-03-12T08:55:26.260Z,101257.72
2019-03-12T08:56:50.811Z,101253.27
2019-03-12T08:58:05.674Z,101257.23
2019-03-12T08:59:26.288Z,101258.06
2019-03-12T09:00:40.068Z,101263.16
2019-03-12T09:02:25.171Z,101259.00
2019-03-12T09:03:43.601Z,101262.69
2019-03-12T09:05:01.936Z,101267.44
2019-03-12T09:06:09.848Z,101260.79
2019-03-12T09:07:21.511Z,101266.44
2019-03-12T09:08:32.141Z,101261.30
2019-03-12T09:09:39.641Z,101266.55
2019-03-12T09:11:03.392Z,101264.03
2019-03-12T09:12:12.926Z,101258.52
2019-03-12T09:13:37.778Z,101266.54
2019-03-12T09:14:48.399Z,101265.81
2019-03-12T09:16:02.278Z,101265.81
2019-03-12T09:17:27.316Z,101266.54
2019-03-12T09:18:35.114Z,101265.23
2019-03-12T09:19:44.988Z,101267.33
2019-03-12T09:20:54.223Z,101266.83
2019-03-12T09:21:59.814Z,101268.73
2019-03-12T09:23:19.412Z,101265.77
2019-03-12T09:24:25.572Z,101268.67
2019-03-12T09:25:45.485Z,101263.59
2019-03-12T09:26:54.103Z,101263.33
2019-03-12T09:28:20.461Z,101267.33
2019-03-12T09:29:31.985Z,101263.30
2019-03-12T09:30:49.171Z,101265.86
2019-03-12T09:31:57.183Z,101265.94
2019-03-12T09:33:12.640Z,101264.42
2019-03-12T09:34:28.023Z,101263.30
2019-03-12T09:35:41.723Z,101257.91
2019-03-12T09:39:34.992Z,101254.00
2019-03-12T09:43:30.942Z,101262.34
2019-03-12T09:44:38.299Z,101258.64
2019-03-12T09:45:46.846Z,101263.54
2019-03-12T09:46:54.191Z,101250.13
2019-03-12T09:48:09.762Z,101258.33
2019-03-12T09:49:18.930Z,101258.17
2019-03-12T09:50:26.189Z,101253.69
2019-03-12T09:52:10.383Z,101250.11
2019-03-12T09:53:22.103Z,101247.84
2019-03-12T09:54:40.959Z,101244.55
2019-03-12T09:55:49.109Z,101248.41
2019-03-12T09:57:14.637Z,101257.15
2019-03-12T09:58:25.920Z,101258.33
2019-03-12T09:59:37.282Z,101253.48
2019-03-12T10:00:48.942Z,101249.41
2019-03-12T10:01:59.334Z,101252.80
2019-03-12T10:03:07.569Z,101255.14
2019-03-12T10:04:19.123Z,101252.73
2019-03-12T10:05:37.934Z,101259.36
2019-03-12T10:06:48.958Z,101254.66
2019-03-12T10:07:59.981Z,101259.61
2019-03-12T10:09:14.393Z,101259.05
2019-03-12T10:10:24.647Z,101263.41
2019-03-12T10:11:36.707Z,101268.28
2019-03-12T10:12:54.139Z,101265.56
2019-03-12T10:14:16.916Z,101268.13
2019-03-12T10:15:24.383Z,101276.15
2019-03-12T10:16:49.881Z,101276.22
2019-03-12T10:18:02.564Z,101278.02
2019-03-12T10:19:14.972Z,101274.44
2019-03-12T10:20:39.163Z,101281.70
2019-03-12T10:22:00.579Z,101283.61
2019-03-12T10:23:07.821Z,101280.33
2019-03-12T10:24:24.123Z,101273.72
2019-03-12T10:25:42.153Z,101271.71
2019-03-12T10:26:54.678Z,101268.13
2019-03-12T10:28:00.450Z,101272.80
2019-03-12T10:29:10.842Z,101271.96
2019-03-12T10:30:31.772Z,101261.76
2019-03-12T10:31:37.923Z,101258.69
2019-03-12T10:32:45.883Z,101248.27
2019-03-12T10:33:54.393Z,101247.59
2019-03-12T10:35:02.125Z,101244.25
2019-03-12T10:36:21.508Z,101239.77
2019-03-12T10:37:42.044Z,101236.59
2019-03-12T10:41:07.686Z,101237.34
2019-03-12T10:42:18.983Z,101232.36
2019-03-12T10:43:26.394Z,101233.69
2019-03-12T10:44:46.697Z,101228.19
2019-03-12T10:45:56.930Z,101225.86
2019-03-12T10:47:26.691Z,101216.00
2019-03-12T10:48:53.561Z,101214.27
2019-03-12T10:50:00.611Z,101216.29
2019-03-12T10:51:07.165Z,101212.23
2019-03-12T10:52:13.026Z,101214.36
2019-03-12T10:53:19.078Z,101207.31
2019-03-12T10:54:25.178Z,101208.98
2019-03-12T10:55:32.104Z,101212.92
2019-03-12T10:56:38.495Z,101211.12
2019-03-12T10:57:44.566Z,101216.60
2019-03-12T10:58:50.586Z,101213.23
2019-03-12T10:59:56.845Z,101214.69
2019-03-12T11:01:04.593Z,101209.83
2019-03-12T11:02:12.264Z,101205.98
2019-03-12T11:03:19.738Z,101211.02
2019-03-12T11:04:26.303Z,101203.67
2019-03-12T11:05:45.304Z,101205.81
2019-03-12T11:06:41.720Z,101204.31
2019-03-12T11:07:49.379Z,101202.92
2019-03-12T11:08:56.742Z,101191.88
2019-03-12T11:10:03.877Z,101189.52
2019-03-12T11:11:09.802Z,101184.47
2019-03-12T11:12:15.640Z,101193.53
2019-03-12T11:13:21.381Z,101189.17
2019-03-12T11:14:27.374Z,101181.87
2019-03-12T11:15:33.439Z,101188.63
2019-03-12T11:16:41.580Z,101185.45
2019-03-12T11:17:49.795Z,101196.29
2019-03-12T11:18:54.922Z,101185.61
2019-03-12T11:20:00.785Z,101193.67
2019-03-12T11:21:06.663Z,101189.44
2019-03-12T11:22:12.784Z,101181.57
2019-03-12T11:23:29.680Z,101181.87
2019-03-12T11:24:36.619Z,101180.55
2019-03-12T11:25:44.765Z,101173.00
2019-03-12T11:26:51.557Z,101172.03
2019-03-12T11:27:57.433Z,101168.22
2019-03-12T11:29:03.911Z,101155.70
2019-03-12T11:30:18.774Z,101159.43
2019-03-12T11:31:24.552Z,101153.75
2019-03-12T11:32:31.965Z,101157.44
2019-03-12T11:33:38.274Z,101154.34
2019-03-12T11:34:44.783Z,101152.65
2019-03-12T11:35:52.554Z,101152.65
2019-03-12T11:36:58.578Z,101158.34
2019-03-12T11:38:05.251Z,101154.27
2019-03-12T11:39:12.506Z,101153.59
2019-03-12T11:40:25.676Z,101152.63
2019-03-12T11:41:34.549Z,101157.53
2019-03-12T11:42:40.761Z,101148.26
2019-03-12T11:43:46.438Z,101148.15
2019-03-12T11:44:54.045Z,101145.31
2019-03-12T11:46:02.443Z,101140.30
2019-03-12T11:47:10.764Z,101141.33
2019-03-12T11:48:19.814Z,101146.88
2019-03-12T11:49:26.014Z,101137.27
2019-03-12T11:50:33.181Z,101136.48
2019-03-12T11:51:43.477Z,101141.86
2019-03-12T11:52:56.152Z,101134.75
2019-03-12T11:53:58.175Z,101148.20
2019-03-12T11:55:07.017Z,101137.78
2019-03-12T11:56:14.312Z,101134.80
2019-03-12T11:57:20.465Z,101138.85
2019-03-12T11:58:26.191Z,101148.02
2019-03-12T11:59:32.425Z,101147.73
2019-03-12T12:00:40.956Z,101142.27
2019-03-12T12:01:47.273Z,101144.82
2019-03-12T12:02:59.795Z,101132.14
2019-03-12T12:04:02.173Z,101135.34
2019-03-12T12:05:10.085Z,101144.61
2019-03-12T12:06:16.802Z,101140.45
2019-03-12T12:07:23.855Z,101149.48
2019-03-12T12:08:32.385Z,101141.23
2019-03-12T12:09:38.400Z,101139.07
2019-03-12T12:10:44.524Z,101136.86
2019-03-12T12:11:50.495Z,101142.07
2019-03-12T12:12:56.842Z,101137.76
2019-03-12T12:14:04.560Z,101132.81
2019-03-12T12:15:15.745Z,101136.81
2019-03-12T12:16:21.991Z,101132.45
2019-03-12T12:17:29.165Z,101131.61
2019-03-12T12:18:34.886Z,101135.56
2019-03-12T12:19:41.003Z,101130.12
2019-03-12T12:20:48.056Z,101128.73
2019-03-12T12:21:53.853Z,101132.27
2019-03-12T12:22:59.855Z,101130.23
2019-03-12T12:24:05.797Z,101129.61
2019-03-12T12:25:17.482Z,101118.48
2019-03-12T12:26:25.344Z,101124.87
2019-03-12T12:27:31.573Z,101119.56
2019-03-12T12:28:37.525Z,101119.55
2019-03-12T12:29:43.845Z,101122.95
2019-03-12T12:30:50.387Z,101118.07
2019-03-12T12:31:56.312Z,101111.07
2019-03-12T12:33:02.106Z,101109.27
2019-03-12T12:34:07.972Z,101116.28
2019-03-12T12:35:13.945Z,101116.16
2019-03-12T12:36:19.744Z,101116.89
2019-03-12T12:37:27.387Z,101125.09
2019-03-12T12:38:33.178Z,101118.45
2019-03-12T12:39:39.026Z,101116.20
2019-03-12T12:42:03.325Z,101110.14
2019-03-12T12:43:09.632Z,101114.20
2019-03-12T12:44:15.406Z,101120.95
2019-03-12T12:45:34.755Z,101118.48
2019-03-12T12:46:40.926Z,101114.66
2019-03-12T12:47:48.255Z,101115.24
2019-03-12T12:48:54.144Z,101118.77
2019-03-12T12:50:01.243Z,101109.13
2019-03-12T12:51:08.307Z,101114.45
2019-03-12T12:52:14.130Z,101104.89
2019-03-12T12:53:19.965Z,101107.09
2019-03-12T12:54:27.806Z,101101.77
2019-03-12T12:55:33.835Z,101104.36
2019-03-12T12:56:39.606Z,101101.77
2019-03-12T12:57:45.612Z,101111.09
2019-03-12T12:58:51.737Z,101105.83
2019-03-12T12:59:57.446Z,101106.27
2019-03-12T13:01:03.206Z,101107.63
2019-03-12T13:02:09.058Z,101098.47
2019-03-12T13:03:37.357Z,101101.56
2019-03-12T13:04:43.962Z,101104.68
2019-03-12T13:05:55.578Z,101106.90
2019-03-12T13:07:02.073Z,101104.73
2019-03-12T13:08:08.888Z,101102.94
2019-03-12T13:09:15.037Z,101096.36
2019-03-12T13:10:28.063Z,101103.84
2019-03-12T13:11:34.517Z,101096.05
2019-03-12T13:12:46.297Z,101096.53
2019-03-12T13:13:51.237Z,101098.57
2019-03-12T13:14:58.416Z,101097.89
2019-03-12T13:16:05.646Z,101088.62
2019-03-12T13:17:14.904Z,101093.03
2019-03-12T13:18:25.707Z,101087.72
2019-03-12T13:19:52.463Z,101084.67
2019-03-12T13:21:00.294Z,101081.09
2019-03-12T13:22:06.197Z,101079.41
2019-03-12T13:23:12.886Z,101080.84
2019-03-12T13:24:19.126Z,101084.63
2019-03-12T13:25:25.657Z,101075.15
2019-03-12T13:26:31.527Z,101077.46
2019-03-12T13:27:42.168Z,101076.68
2019-03-12T13:29:07.199Z,101068.50
2019-03-12T13:30:25.870Z,101073.81
2019-03-12T13:31:31.723Z,101072.08
2019-03-12T13:32:40.288Z,101069.88
2019-03-12T13:34:00.200Z,101071.61